Flight Information

DEPARTURE
YAKIMA, WA
Elevation:
1098
Runways:
9/27 - 7604x150 - ASPH-E
4/22 - 3835x150 - ASPH-P
ATIS:
125.25
Clearance Delivery:
121.9
Ground:
121.9
Tower:
YAKIMA TOW ER 133.25
DESTINATION
,
Elevation:
TPA:
1000 (est.)


6626.7 NM67° True-19° Var47° HDG

Flight Plan:
(click to file on line)

1. Type
2. Aircraft Identification
3. Aircraft Type / Special Equipment
4. True Airspeed
kts
5. Departure Airport
(ICAO code)
6. Arriving Airport
(ICAO code)
7. Cruising Altitude
ft
8. Alternate Airport
(ICAO code)
9. Route of Flight
10. Remarks


00:00:00 Departure ATIS: Destination ATIS:

Clearance Limit:
Route:
Altitude: Expect in minutes
Frequency:
Transponder: (7500 Hijack / 7600 Lost Comms / 7700 Emergency)


KYKM 221553Z 28004KT 10SM CLR M01/M07 A3006 RMK AO2 SLP191 T10061072 $
Time: 2021-01-22T15:53:00Z
1611333735
Winds: 280 @ 4 kts
Visibility: 10.0 sm
Clouds (AGL): CLR
Temperature: -0.6 C
Dew Point: -7.2 C
Pressure: 30.059055 in Hgbr


Notes:

Data extracted from FAA Digital Chart Supplement. Effective: 0901Z Thursday, Dec 31, 2020 to 0901Z Thursday, Jan 28, 2021
Current ATIS data is provided courtisy of PilotEdge.